Time;durP1;ratioP1;P1;durP2;ratioP2;P2;SDS_P1;SDS_P2;PMS_P1;PMS_P2;Temp;Humidity;BMP_temperature;BMP_pressure;BME280_temperature;BME280_humidity;BME280_pressure;Samples;Min_cycle;Max_cycle;Signal;HPM_P1;HPM_P2
2021/10/26 00:01:28;;;;;;;;;;;;;;;5.82;59.50;100690.78;4396092;32;19974;-88
2021/10/26 00:03:53;;;;;;;;;;;;;;;5.83;59.50;100691.63;4396420;32;19981;-86
2021/10/26 00:06:18;;;;;;;;;;;;;;;5.81;59.50;100686.47;4396101;32;20323;-88
2021/10/26 00:08:44;;;;;;;;;;;;;;;5.83;59.50;100689.06;4396403;32;20004;-87
2021/10/26 00:11:09;;;;;;;;;;;;;;;5.81;59.50;100690.78;4395868;32;19979;-86
2021/10/26 00:13:34;;;;;;;;;;;;;;;5.78;59.50;100689.03;4395605;32;20000;-88
2021/10/26 00:15:59;;;;;;;;;;;;;;;5.86;59.51;100689.91;4396006;32;20033;-87
2021/10/26 00:18:25;;;;;;;;;;;;;;;5.87;59.51;100681.31;4383573;32;20033;-87
2021/10/26 00:20:50;;;;;;;;;;;;;;;5.81;59.50;100683.88;4382553;32;19978;-87
2021/10/26 00:23:16;;;;;;;;;;;;;;;5.84;59.51;100680.44;4383365;32;19990;-87
2021/10/26 00:25:41;;;;;;;;;;;;;;;5.80;59.50;100687.31;4390692;32;20009;-88
2021/10/26 00:28:06;;;;;;;;;;;;;;;5.83;59.51;100682.16;4399297;32;20002;-88
2021/10/26 00:30:31;;;;;;;;;;;;;;;5.85;59.51;100687.34;4404919;32;19992;-89
2021/10/26 00:32:57;;;;;;;;;;;;;;;5.87;59.51;100686.47;4398041;32;19998;-88
2021/10/26 00:35:27;;;;;;;;;;;;;;;5.81;59.50;100680.44;4398134;32;19990;-89
2021/10/26 00:37:52;;;;;;;;;;;;;;;5.82;59.50;100672.69;4398713;32;20049;-88
2021/10/26 00:40:17;;;;;;;;;;;;;;;5.77;59.50;100670.97;4397646;32;20330;-89
2021/10/26 00:42:43;;;;;;;;;;;;;;;5.86;59.51;100666.66;4398419;32;20343;-90
2021/10/26 00:45:08;;;;;;;;;;;;;;;5.95;59.51;100667.59;4398440;32;20005;-89
2021/10/26 00:47:33;;;;;;;;;;;;;;;5.91;59.51;100666.69;4398160;32;20048;-89
2021/10/26 00:49:58;;;;;;;;;;;;;;;5.88;59.50;100661.50;4398931;32;19950;-90
2021/10/26 00:52:24;;;;;;;;;;;;;;;5.83;59.50;100655.47;4398382;32;19985;-90
2021/10/26 00:54:49;;;;;;;;;;;;;;;5.87;59.51;100657.19;4398225;32;20267;-90
2021/10/26 00:57:18;;;;;;;;;;;;;;;5.80;59.50;100656.31;4399826;32;20002;-90
2021/10/26 00:59:43;;;;;;;;;;;;;;;5.83;59.51;100656.31;4398922;32;20787;-90
2021/10/26 01:02:08;;;;;;;;;;;;;;;5.83;59.51;100648.56;4398148;32;19974;-88
2021/10/26 01:04:33;;;;;;;;;;;;;;;5.90;59.52;100649.47;4398027;32;20259;-89
2021/10/26 01:06:59;;;;;;;;;;;;;;;5.79;59.50;100646.84;4397783;32;20006;-88
2021/10/26 01:09:24;;;;;;;;;;;;;;;5.80;59.50;100643.41;4397699;32;19986;-89
2021/10/26 01:11:49;;;;;;;;;;;;;;;5.86;59.50;100646.00;4394753;32;19997;-87
2021/10/26 01:14:15;;;;;;;;;;;;;;;5.82;59.50;100641.69;4395204;32;20312;-88
2021/10/26 01:16:40;;;;;;;;;;;;;;;5.84;59.51;100645.12;4382634;32;19994;-88
2021/10/26 01:19:05;;;;;;;;;;;;;;;5.97;59.51;100640.03;4394968;32;19979;-88
2021/10/26 01:21:31;;;;;;;;;;;;;;;5.86;59.50;100635.66;4395116;32;19989;-88
2021/10/26 01:23:56;;;;;;;;;;;;;;;5.92;59.51;100632.28;4382289;32;20046;-86
2021/10/26 01:26:21;;;;;;;;;;;;;;;5.75;59.50;100629.63;4381932;32;20020;-86
2021/10/26 01:28:46;;;;;;;;;;;;;;;5.74;59.49;100627.03;4394770;32;20005;-87
2021/10/26 01:31:12;;;;;;;;;;;;;;;5.75;59.49;100624.47;4395621;32;19993;-85
2021/10/26 01:33:37;;;;;;;;;;;;;;;5.70;59.50;100622.75;4402591;32;20000;-86
2021/10/26 01:36:02;;;;;;;;;;;;;;;5.65;59.49;100620.13;4409141;32;20025;-86
2021/10/26 01:38:28;;;;;;;;;;;;;;;5.56;59.49;100620.13;4396462;32;19989;-86
2021/10/26 01:40:53;;;;;;;;;;;;;;;5.54;59.49;100617.53;4409112;32;20361;-86
2021/10/26 01:43:18;;;;;;;;;;;;;;;5.59;59.49;100617.53;4396031;32;22288;-85
2021/10/26 01:45:43;;;;;;;;;;;;;;;5.60;59.48;100618.41;4408825;32;19994;-86
2021/10/26 01:48:09;;;;;;;;;;;;;;;5.64;59.50;100614.94;4395834;32;21901;-86
2021/10/26 01:50:34;;;;;;;;;;;;;;;5.63;59.50;100603.75;4396878;32;19981;-86
2021/10/26 01:52:59;;;;;;;;;;;;;;;5.63;59.49;100610.66;4397118;32;19990;-87
2021/10/26 01:55:24;;;;;;;;;;;;;;;5.65;59.50;100607.22;4397035;32;20270;-87
2021/10/26 01:57:50;;;;;;;;;;;;;;;5.67;59.49;100602.03;4397104;32;19996;-87
2021/10/26 02:00:18;;;;;;;;;;;;;;;5.67;59.49;100605.47;4397286;32;22282;-86
2021/10/26 02:02:43;;;;;;;;;;;;;;;5.71;59.50;100603.78;4410756;32;19990;-86
2021/10/26 02:05:09;;;;;;;;;;;;;;;5.76;59.50;100595.19;4401601;32;19996;-89
2021/10/26 02:07:34;;;;;;;;;;;;;;;5.78;59.50;100605.50;4414236;32;19993;-89
2021/10/26 02:09:59;;;;;;;;;;;;;;;5.78;59.50;100601.22;4397705;32;19977;-89
2021/10/26 02:12:25;;;;;;;;;;;;;;;5.73;59.50;100594.31;4410470;32;19978;-89
2021/10/26 02:14:51;;;;;;;;;;;;;;;5.69;59.50;100598.62;4410201;32;19982;-87
2021/10/26 02:17:16;;;;;;;;;;;;;;;5.84;59.51;100595.19;4396927;32;19984;-87
2021/10/26 02:19:41;;;;;;;;;;;;;;;5.88;59.51;100591.72;4409636;32;19978;-86
2021/10/26 02:22:06;;;;;;;;;;;;;;;5.93;59.51;100581.47;4395797;32;21401;-84
2021/10/26 02:24:32;;;;;;;;;;;;;;;5.97;59.51;100588.34;4396475;32;20255;-86
2021/10/26 02:26:58;;;;;;;;;;;;;;;5.96;59.51;100586.63;4409719;32;19977;-86
2021/10/26 02:29:23;;;;;;;;;;;;;;;5.94;59.51;100581.47;4409451;32;19978;-87
2021/10/26 02:31:48;;;;;;;;;;;;;;;6.15;59.52;100581.44;4409115;32;20042;-87
2021/10/26 02:34:13;;;;;;;;;;;;;;;6.31;59.53;100577.09;4396857;32;20040;-88
2021/10/26 02:36:39;;;;;;;;;;;;;;;6.09;59.52;100589.19;4397093;32;23658;-87
2021/10/26 02:39:04;;;;;;;;;;;;;;;6.17;59.52;100585.75;4409750;32;20037;-88
2021/10/26 02:41:29;;;;;;;;;;;;;;;6.32;59.53;100581.41;4397205;32;20028;-87
2021/10/26 02:43:54;;;;;;;;;;;;;;;6.40;59.53;100582.28;4396960;32;20271;-87
2021/10/26 02:46:20;;;;;;;;;;;;;;;6.45;59.54;100579.69;4409164;32;20016;-87
2021/10/26 02:48:47;;;;;;;;;;;;;;;6.47;59.54;100580.53;4409508;32;19978;-87
2021/10/26 02:51:13;;;;;;;;;;;;;;;6.47;59.54;100578.81;4395174;32;20065;-87
2021/10/26 02:53:38;;;;;;;;;;;;;;;6.43;59.54;100579.69;4396469;32;20036;-88
2021/10/26 02:56:03;;;;;;;;;;;;;;;6.61;59.55;100585.66;4395687;32;22890;-85
2021/10/26 02:58:28;;;;;;;;;;;;;;;6.41;59.54;100584.00;4408342;32;20315;-85
2021/10/26 03:00:54;;;;;;;;;;;;;;;6.47;59.54;100580.53;4407951;32;19981;-85
2021/10/26 03:03:19;;;;;;;;;;;;;;;6.57;59.54;100589.13;4395583;32;20311;-86
2021/10/26 03:05:44;;;;;;;;;;;;;;;6.43;59.54;100584.84;4396029;32;20251;-84
2021/10/26 03:08:10;;;;;;;;;;;;;;;6.44;59.54;100581.41;4397128;32;19994;-86
2021/10/26 03:10:35;;;;;;;;;;;;;;;6.42;59.54;100580.56;4395667;32;20019;-85
2021/10/26 03:13:00;;;;;;;;;;;;;;;6.32;59.53;100578.81;4395767;32;20049;-86
2021/10/26 03:15:26;;;;;;;;;;;;;;;6.38;59.53;100576.22;4395149;32;19996;-85
2021/10/26 03:17:51;;;;;;;;;;;;;;;6.42;59.54;100575.38;4407795;32;20054;-85
2021/10/26 03:20:17;;;;;;;;;;;;;;;6.39;59.54;100570.22;4394905;32;19990;-85
2021/10/26 03:22:42;;;;;;;;;;;;;;;6.46;59.54;100574.50;4408396;32;20449;-85
2021/10/26 03:25:08;;;;;;;;;;;;;;;6.41;59.54;100576.25;4408399;32;19974;-85
2021/10/26 03:27:34;;;;;;;;;;;;;;;6.43;59.54;100571.06;4396415;32;19978;-86
2021/10/26 03:30:00;;;;;;;;;;;;;;;6.31;59.53;100571.94;4416397;32;19955;-86
2021/10/26 03:32:26;;;;;;;;;;;;;;;6.33;59.53;100569.34;4422218;32;20000;-85
2021/10/26 03:34:51;;;;;;;;;;;;;;;6.33;59.53;100570.19;4415073;32;19989;-86
2021/10/26 03:37:17;;;;;;;;;;;;;;;6.32;59.53;100576.25;4397330;32;19998;-86
2021/10/26 03:39:44;;;;;;;;;;;;;;;6.30;59.53;100567.62;4396145;32;22105;-86
2021/10/26 03:42:09;;;;;;;;;;;;;;;6.26;59.53;100570.22;4409329;32;20671;-88
2021/10/26 03:44:35;;;;;;;;;;;;;;;6.26;59.52;100576.25;4396063;32;19978;-87
2021/10/26 03:47:00;;;;;;;;;;;;;;;6.24;59.52;100577.13;4408525;32;20012;-87
2021/10/26 03:49:25;;;;;;;;;;;;;;;6.33;59.53;100571.94;4395547;32;19998;-85
2021/10/26 03:51:50;;;;;;;;;;;;;;;6.21;59.53;100572.81;4395671;32;20295;-87
2021/10/26 03:54:15;;;;;;;;;;;;;;;6.26;59.52;100575.41;4394430;32;20317;-84
2021/10/26 03:56:41;;;;;;;;;;;;;;;6.14;59.53;100581.41;4409292;32;24050;-88
2021/10/26 03:59:08;;;;;;;;;;;;;;;6.17;59.52;100584.03;4395690;32;20002;-88
2021/10/26 04:01:39;;;;;;;;;;;;;;;6.29;59.53;100572.81;4408187;32;19998;-88
2021/10/26 04:04:04;;;;;;;;;;;;;;;6.29;59.53;100568.50;4409375;32;20054;-84
2021/10/26 04:06:30;;;;;;;;;;;;;;;6.27;59.53;100574.53;4407190;32;20279;-81
2021/10/26 04:08:59;;;;;;;;;;;;;;;6.23;59.53;100576.25;4406911;32;19982;-85
2021/10/26 04:11:26;;;;;;;;;;;;;;;6.22;59.53;100576.28;4395228;32;20049;-85
2021/10/26 04:13:52;;;;;;;;;;;;;;;6.11;59.51;100582.28;4408668;32;20030;-83
2021/10/26 04:16:17;;;;;;;;;;;;;;;6.13;59.52;100583.16;4395764;32;19974;-87
2021/10/26 04:18:43;;;;;;;;;;;;;;;6.17;59.53;100580.59;4396317;32;20037;-88
2021/10/26 04:21:08;;;;;;;;;;;;;;;6.17;59.52;100581.44;4408419;32;20006;-87
2021/10/26 04:23:34;;;;;;;;;;;;;;;6.15;59.52;100586.63;4396345;32;20054;-87
2021/10/26 04:26:00;;;;;;;;;;;;;;;6.24;59.53;100577.97;4396339;32;19989;-88
2021/10/26 04:28:25;;;;;;;;;;;;;;;6.25;59.53;100576.25;4408791;32;20022;-88
2021/10/26 04:30:50;;;;;;;;;;;;;;;6.21;59.53;100582.31;4408343;32;20000;-88
2021/10/26 04:33:16;;;;;;;;;;;;;;;6.22;59.53;100584.03;4395717;32;19970;-87
2021/10/26 04:35:41;;;;;;;;;;;;;;;6.17;59.53;100575.41;4395760;32;19974;-87
2021/10/26 04:38:07;;;;;;;;;;;;;;;6.23;59.53;100572.81;4394483;32;20266;-87
2021/10/26 04:40:32;;;;;;;;;;;;;;;6.18;59.52;100572.81;4408376;32;20005;-87
2021/10/26 04:42:57;;;;;;;;;;;;;;;6.21;59.53;100572.81;4396876;32;19970;-88
2021/10/26 04:45:23;;;;;;;;;;;;;;;6.21;59.53;100567.66;4408633;32;19982;-87
2021/10/26 04:47:48;;;;;;;;;;;;;;;6.09;59.52;100576.25;4395224;32;19994;-87
2021/10/26 04:50:13;;;;;;;;;;;;;;;6.03;59.52;100578.00;4407911;32;20041;-87
2021/10/26 04:52:39;;;;;;;;;;;;;;;6.07;59.52;100574.53;4395373;32;19982;-87
2021/10/26 04:55:04;;;;;;;;;;;;;;;6.02;59.51;100571.97;4395216;32;20085;-88
2021/10/26 04:57:29;;;;;;;;;;;;;;;5.90;59.51;100571.09;4395235;32;19999;-87
2021/10/26 04:59:58;;;;;;;;;;;;;;;5.90;59.51;100579.72;4394944;32;19986;-86
2021/10/26 05:02:23;;;;;;;;;;;;;;;5.87;59.50;100577.09;4395186;32;19983;-85
2021/10/26 05:04:48;;;;;;;;;;;;;;;5.87;59.50;100582.25;4396623;32;19993;-86
2021/10/26 05:07:15;;;;;;;;;;;;;;;5.74;59.49;100580.53;4397285;32;20051;-84
2021/10/26 05:09:40;;;;;;;;;;;;;;;5.83;59.51;100576.22;4395414;32;19998;-84
2021/10/26 05:12:06;;;;;;;;;;;;;;;5.85;59.50;100583.97;4407139;32;19985;-86
2021/10/26 05:14:31;;;;;;;;;;;;;;;5.74;59.49;100578.81;4408841;32;19970;-85
2021/10/26 05:16:57;;;;;;;;;;;;;;;5.80;59.50;100580.53;4408679;32;20024;-85
2021/10/26 05:19:23;;;;;;;;;;;;;;;5.77;59.50;100578.81;4396428;32;20661;-85
2021/10/26 05:21:49;;;;;;;;;;;;;;;5.70;59.50;100581.41;4409337;32;19970;-84
2021/10/26 05:24:14;;;;;;;;;;;;;;;5.60;59.48;100580.53;4409306;32;20357;-84
2021/10/26 05:26:40;;;;;;;;;;;;;;;5.62;59.49;100589.13;4409269;32;20720;-85
2021/10/26 05:29:07;;;;;;;;;;;;;;;5.62;59.50;100580.53;4409117;32;19998;-85
2021/10/26 05:31:33;;;;;;;;;;;;;;;5.64;59.49;100587.41;4396386;32;19974;-85
2021/10/26 05:33:58;;;;;;;;;;;;;;;5.66;59.49;100596.00;4396149;32;20028;-85
2021/10/26 05:36:23;;;;;;;;;;;;;;;5.80;59.50;100596.03;4396305;32;20014;-82
2021/10/26 05:38:48;;;;;;;;;;;;;;;5.68;59.49;100598.59;4396725;32;19986;-84
2021/10/26 05:41:14;;;;;;;;;;;;;;;5.69;59.50;100592.59;4396815;32;20002;-85
2021/10/26 05:43:39;;;;;;;;;;;;;;;5.75;59.49;100597.78;4396746;32;20014;-86
2021/10/26 05:46:04;;;;;;;;;;;;;;;5.87;59.50;100597.75;4396961;32;20290;-85
2021/10/26 05:48:31;;;;;;;;;;;;;;;5.90;59.50;100609.84;4396475;32;19994;-85
2021/10/26 05:50:57;;;;;;;;;;;;;;;6.08;59.52;100613.31;4396832;32;20049;-85
2021/10/26 05:53:22;;;;;;;;;;;;;;;6.18;59.52;100606.44;4396583;32;19981;-85
2021/10/26 05:55:47;;;;;;;;;;;;;;;6.17;59.52;100620.22;4396262;32;20006;-86
2021/10/26 05:58:13;;;;;;;;;;;;;;;6.25;59.52;100618.50;4396925;32;19986;-85
2021/10/26 06:00:38;;;;;;;;;;;;;;;6.30;59.53;100616.75;4398179;32;19986;-85
2021/10/26 06:03:04;;;;;;;;;;;;;;;6.32;59.53;100622.78;4395020;32;20068;-86
2021/10/26 06:05:29;;;;;;;;;;;;;;;6.39;59.53;100623.66;4395118;32;19990;-85
2021/10/26 06:07:55;;;;;;;;;;;;;;;6.53;59.55;100619.31;4395099;32;20029;-85
2021/10/26 06:10:21;;;;;;;;;;;;;;;6.55;59.54;100624.47;4395407;32;20304;-85
2021/10/26 06:12:55;;;;;;;;;;;;;;;6.72;59.55;100622.72;4408581;32;20388;-86
2021/10/26 06:15:20;;;;;;;;;;;;;;;6.94;59.56;100628.72;4395192;32;19994;-86
2021/10/26 06:17:45;;;;;;;;;;;;;;;6.88;59.56;100632.19;4407994;32;20032;-86
2021/10/26 06:20:11;;;;;;;;;;;;;;;6.86;59.56;100635.62;4397608;32;20042;-85
2021/10/26 06:22:36;;;;;;;;;;;;;;;7.03;59.58;100624.34;4395870;32;20335;-85
2021/10/26 06:25:02;;;;;;;;;;;;;;;7.02;59.58;100635.56;4395388;32;19998;-86
2021/10/26 06:27:27;;;;;;;;;;;;;;;7.15;59.57;100628.62;4408305;32;19994;-86
2021/10/26 06:29:53;;;;;;;;;;;;;;;7.27;59.59;100640.66;4395237;32;19982;-86
2021/10/26 06:32:18;;;;;;;;;;;;;;;7.41;59.60;100644.06;4394864;32;19982;-86
2021/10/26 06:34:43;;;;;;;;;;;;;;;7.47;59.60;100644.00;4407792;32;20031;-86
2021/10/26 06:37:08;;;;;;;;;;;;;;;7.52;59.59;100644.84;4394640;32;20010;-86
2021/10/26 06:39:34;;;;;;;;;;;;;;;7.58;59.60;100647.44;4396503;32;20009;-85
2021/10/26 06:41:59;;;;;;;;;;;;;;;7.69;59.61;100645.62;4407335;32;19978;-86
2021/10/26 06:44:24;;;;;;;;;;;;;;;7.81;59.61;100649.88;4407796;32;20044;-86
2021/10/26 06:46:49;;;;;;;;;;;;;;;7.87;59.62;100651.56;4394682;32;20232;-85
2021/10/26 06:49:15;;;;;;;;;;;;;;;7.88;59.62;100654.16;4394489;32;20018;-86
2021/10/26 06:51:40;;;;;;;;;;;;;;;8.06;59.62;100653.16;4408511;32;19994;-86
2021/10/26 06:54:05;;;;;;;;;;;;;;;8.21;59.63;100654.75;4394832;32;20009;-86
2021/10/26 06:56:30;;;;;;;;;;;;;;;8.29;59.63;100663.38;4407734;32;20006;-86
2021/10/26 06:58:56;;;;;;;;;;;;;;;8.40;59.65;100663.28;4394822;32;19982;-86
2021/10/26 07:01:21;;;;;;;;;;;;;;;8.49;59.65;100661.47;4395302;32;19982;-86
2021/10/26 07:03:47;;;;;;;;;;;;;;;8.64;59.66;100660.47;4407954;32;20025;-86
2021/10/26 07:06:12;;;;;;;;;;;;;;;8.69;59.66;100665.62;4406632;32;20010;-86
2021/10/26 07:08:38;;;;;;;;;;;;;;;8.79;59.66;100662.94;4394661;32;19992;-86
2021/10/26 07:11:03;;;;;;;;;;;;;;;9.00;59.68;100663.59;4394570;32;20093;-86
2021/10/26 07:13:31;;;;;;;;;;;;;;;9.15;59.69;100655.59;4400340;32;19998;-86
2021/10/26 07:15:56;;;;;;;;;;;;;;;9.20;59.70;100664.19;4394218;32;20002;-86
2021/10/26 07:18:22;;;;;;;;;;;;;;;9.23;59.70;100659.84;4394483;32;20025;-86
2021/10/26 07:20:47;;;;;;;;;;;;;;;9.33;59.70;100663.19;4394467;32;20064;-86
2021/10/26 07:23:12;;;;;;;;;;;;;;;9.43;59.71;100656.12;4407127;32;20342;-86
2021/10/26 07:25:38;;;;;;;;;;;;;;;9.50;59.71;100657.78;4394549;32;20010;-86
2021/10/26 07:28:04;;;;;;;;;;;;;;;9.53;59.71;100653.41;4393421;32;20337;-86
2021/10/26 07:30:32;;;;;;;;;;;;;;;9.74;59.72;100641.84;4394673;32;19970;-88
2021/10/26 07:33:01;;;;;;;;;;;;;;;9.90;59.73;100647.66;4394323;32;20591;-86
2021/10/26 07:35:33;;;;;;;;;;;;;;;9.99;59.73;100641.47;4394396;32;19998;-85
2021/10/26 07:37:58;;;;;;;;;;;;;;;10.07;59.73;100653.47;4407083;32;19982;-86
2021/10/26 07:40:24;;;;;;;;;;;;;;;10.26;59.75;100643.69;4394500;32;20358;-86
2021/10/26 07:42:49;;;;;;;;;;;;;;;10.38;59.75;100647.81;4393973;32;20006;-85
2021/10/26 07:45:14;;;;;;;;;;;;;;;10.34;59.75;100651.34;4406504;32;20263;-86
2021/10/26 07:47:39;;;;;;;;;;;;;;;10.59;59.76;100649.19;4393298;32;22376;-85
2021/10/26 07:50:06;;;;;;;;;;;;;;;10.62;59.78;100643.91;4393951;32;19982;-86
2021/10/26 07:52:31;;;;;;;;;;;;;;;10.64;59.78;100642.12;4394237;32;19994;-86
2021/10/26 07:54:57;;;;;;;;;;;;;;;10.81;59.78;100640.09;4394064;32;20345;-86
2021/10/26 07:57:23;;;;;;;;;;;;;;;10.96;59.79;100638.94;4394352;32;19986;-86
2021/10/26 07:59:48;;;;;;;;;;;;;;;11.18;59.80;100644.59;4406636;32;20036;-86
2021/10/26 08:02:14;;;;;;;;;;;;;;;11.33;59.81;100646.87;4393685;32;20037;-86
2021/10/26 08:04:39;;;;;;;;;;;;;;;11.43;59.81;100645.81;4393864;32;20252;-87
2021/10/26 08:07:08;;;;;;;;;;;;;;;11.58;59.82;100645.47;4393664;32;19982;-87
2021/10/26 08:09:33;;;;;;;;;;;;;;;11.75;59.83;100639.03;4393855;32;19990;-87
2021/10/26 08:11:58;;;;;;;;;;;;;;;11.87;59.84;100633.56;4406441;32;20064;-87
2021/10/26 08:14:24;;;;;;;;;;;;;;;11.93;59.84;100634.28;4393495;32;20041;-87
2021/10/26 08:16:49;;;;;;;;;;;;;;;11.90;59.84;100634.34;4393706;32;19979;-87
2021/10/26 08:19:15;;;;;;;;;;;;;;;12.15;59.86;100625.94;4393531;32;20315;-87
2021/10/26 08:21:40;;;;;;;;;;;;;;;12.31;59.86;100622.06;4393520;32;19990;-87
2021/10/26 08:24:07;;;;;;;;;;;;;;;12.39;59.86;100619.25;4393520;32;19998;-86
2021/10/26 08:26:35;;;;;;;;;;;;;;;12.38;59.86;100625.38;4393076;32;19990;-86
2021/10/26 08:29:08;;;;;;;;;;;;;;;12.43;59.88;100626.09;4393543;32;20028;-86
2021/10/26 08:34:19;;;;;;;;;;;;;;;12.69;59.89;100622.81;4406161;32;20008;-87
2021/10/26 08:36:45;;;;;;;;;;;;;;;12.68;59.89;100631.53;4393757;32;20010;-86
2021/10/26 08:39:14;;;;;;;;;;;;;;;12.57;59.87;100624.00;4393878;32;19990;-85
2021/10/26 08:41:42;;;;;;;;;;;;;;;12.75;59.89;100617.41;4395415;32;19998;-87
2021/10/26 08:44:07;;;;;;;;;;;;;;;12.71;59.88;100618.41;4395347;32;20739;-87
2021/10/26 08:46:33;;;;;;;;;;;;;;;12.88;59.90;100614.44;4395369;32;20002;-88
2021/10/26 08:48:58;;;;;;;;;;;;;;;12.93;59.89;100610.84;4395285;32;20696;-87
2021/10/26 08:51:24;;;;;;;;;;;;;;;13.12;59.91;100610.28;4407932;32;20322;-87
2021/10/26 08:53:55;;;;;;;;;;;;;;;13.26;59.91;100611.69;4407888;32;20327;-87
2021/10/26 08:56:21;;;;;;;;;;;;;;;13.19;59.92;100613.59;4395297;32;19992;-87
2021/10/26 08:58:50;;;;;;;;;;;;;;;13.25;59.91;100623.00;4395251;32;19986;-87
2021/10/26 09:01:15;;;;;;;;;;;;;;;13.06;59.90;100617.44;4407755;32;19977;-85
2021/10/26 09:03:44;;;;;;;;;;;;;;;13.29;59.91;100614.19;4395250;32;20010;-86
2021/10/26 09:06:09;;;;;;;;;;;;;;;13.40;59.92;100619.94;4408148;32;20673;-87
2021/10/26 09:08:35;;;;;;;;;;;;;;;13.42;59.93;100620.75;4407718;32;19978;-87
2021/10/26 09:16:39;;;;;;;;;;;;;;;13.52;59.93;100617.00;4394985;32;19989;-87
2021/10/26 09:16:46;;;;;;;;;;;;;;;13.58;59.93;100622.03;4407907;32;19989;-86
2021/10/26 09:19:18;;;;;;;;;;;;;;;13.77;59.94;100628.41;4395063;32;20047;-87
2021/10/26 09:21:44;;;;;;;;;;;;;;;13.81;59.95;100619.56;4395121;32;19990;-87
2021/10/26 09:24:13;;;;;;;;;;;;;;;13.92;59.95;100618.34;4395167;32;20035;-86
2021/10/26 09:26:48;;;;;;;;;;;;;;;14.03;59.96;100617.13;4407666;32;19979;-87
2021/10/26 09:29:14;;;;;;;;;;;;;;;14.00;59.95;100614.59;4407607;32;20300;-87
2021/10/26 09:31:41;;;;;;;;;;;;;;;14.03;59.96;100616.25;4395048;32;20086;-86
2021/10/26 09:34:12;;;;;;;;;;;;;;;14.04;59.96;100616.22;4394694;32;19997;-86
2021/10/26 09:36:39;;;;;;;;;;;;;;;14.17;59.96;100611.41;4395057;32;19986;-86
2021/10/26 09:39:04;;;;;;;;;;;;;;;14.21;59.97;100599.94;4407532;32;19998;-86
2021/10/26 09:41:48;;;;;;;;;;;;;;;14.21;59.97;100597.34;4408836;32;20056;-88
2021/10/26 09:44:14;;;;;;;;;;;;;;;14.11;59.96;100609.00;4408619;32;19994;-87
2021/10/26 09:46:40;;;;;;;;;;;;;;;14.20;59.97;100594.78;4394730;32;19994;-86
2021/10/26 09:49:19;;;;;;;;;;;;;;;14.16;59.96;100594.00;4394867;32;19982;-87
2021/10/26 09:51:45;;;;;;;;;;;;;;;14.37;59.97;100592.41;4393991;32;20002;-87
2021/10/26 09:54:15;;;;;;;;;;;;;;;14.44;59.97;100596.59;4394858;32;20013;-87
2021/10/26 09:56:41;;;;;;;;;;;;;;;14.37;59.98;100584.56;4394816;32;20753;-88
2021/10/26 09:59:14;;;;;;;;;;;;;;;14.41;59.98;100587.00;4394660;32;19994;-87
2021/10/26 10:01:50;;;;;;;;;;;;;;;14.53;59.98;100587.53;4394475;32;19994;-88
2021/10/26 10:04:25;;;;;;;;;;;;;;;14.59;59.99;100576.84;4394906;32;20002;-88
2021/10/26 10:06:50;;;;;;;;;;;;;;;14.62;59.99;100577.59;4394672;32;19974;-87
2021/10/26 10:09:22;;;;;;;;;;;;;;;14.61;59.99;100581.12;4394807;32;20272;-88
2021/10/26 10:12:04;;;;;;;;;;;;;;;14.42;59.98;100580.88;4394609;32;19990;-86
2021/10/26 10:14:30;;;;;;;;;;;;;;;14.27;59.97;100570.94;4394774;32;20002;-86
2021/10/26 10:16:55;;;;;;;;;;;;;;;14.46;59.98;100563.34;4407209;32;20472;-86
2021/10/26 10:19:21;;;;;;;;;;;;;;;14.79;60.00;100563.03;4394096;32;20255;-86
2021/10/26 10:21:47;;;;;;;;;;;;;;;15.06;60.02;100546.28;4406569;32;20282;-85
2021/10/26 10:24:13;;;;;;;;;;;;;;;15.19;60.02;100547.53;4407273;32;20062;-86
2021/10/26 10:26:38;;;;;;;;;;;;;;;15.28;60.03;100546.31;4394237;32;20300;-86
2021/10/26 10:29:03;;;;;;;;;;;;;;;15.34;60.03;100535.56;4394559;32;20334;-87
2021/10/26 10:31:30;;;;;;;;;;;;;;;15.44;60.04;100541.34;4406736;32;22233;-86
2021/10/26 10:33:59;;;;;;;;;;;;;;;15.38;60.03;100542.44;4396435;32;20016;-86
2021/10/26 10:36:25;;;;;;;;;;;;;;;15.26;60.03;100535.87;4394500;32;20045;-86
2021/10/26 10:38:51;;;;;;;;;;;;;;;15.21;60.02;100535.22;4407328;32;19979;-86
2021/10/26 10:41:28;;;;;;;;;;;;;;;15.36;60.03;100533.75;4394851;32;19990;-87
2021/10/26 10:43:54;;;;;;;;;;;;;;;15.34;60.03;100527.72;4407322;32;19986;-86
2021/10/26 10:46:39;;;;;;;;;;;;;;;15.47;60.04;100520.22;4394469;32;20330;-86
2021/10/26 10:49:26;;;;;;;;;;;;;;;15.46;60.03;100523.75;4394316;32;20339;-86
2021/10/26 10:51:53;;;;;;;;;;;;;;;15.47;60.04;100526.31;4394566;32;19994;-86
2021/10/26 10:54:43;;;;;;;;;;;;;;;15.59;60.04;100525.84;4394516;32;20080;-86
2021/10/26 10:57:17;;;;;;;;;;;;;;;15.62;60.04;100515.25;4407472;32;20009;-87
2021/10/26 11:00:03;;;;;;;;;;;;;;;15.69;60.04;100509.75;4407208;32;20085;-87
2021/10/26 11:02:33;;;;;;;;;;;;;;;15.63;60.05;100513.50;4394105;32;19994;-86
2021/10/26 11:04:58;;;;;;;;;;;;;;;15.71;60.05;100497.41;4394225;32;20591;-86
2021/10/26 11:07:42;;;;;;;;;;;;;;;15.98;60.06;100491.00;4394086;32;20536;-86
2021/10/26 11:10:19;;;;;;;;;;;;;;;15.90;60.06;100493.97;4406745;32;20052;-86
2021/10/26 11:12:45;;;;;;;;;;;;;;;16.10;60.07;100489.66;4394143;32;20009;-86
2021/10/26 11:15:40;;;;;;;;;;;;;;;16.17;60.08;100481.44;4407018;32;20169;-86
2021/10/26 11:18:05;;;;;;;;;;;;;;;16.25;60.08;100481.94;4407955;32;19974;-86
2021/10/26 11:20:30;;;;;;;;;;;;;;;16.15;60.07;100480.66;4405987;32;26130;-86
2021/10/26 11:22:58;;;;;;;;;;;;;;;16.18;60.08;100483.12;4407799;32;20005;-86
2021/10/26 11:25:23;;;;;;;;;;;;;;;16.27;60.08;100479.25;4406781;32;20293;-85
2021/10/26 11:27:49;;;;;;;;;;;;;;;16.38;60.09;100481.41;4406144;32;19974;-86
2021/10/26 11:30:46;;;;;;;;;;;;;;;16.47;60.10;100481.84;4394082;32;20056;-86
2021/10/26 11:33:11;;;;;;;;;;;;;;;16.52;60.09;100471.13;4387480;32;19990;-86
2021/10/26 11:35:46;;;;;;;;;;;;;;;16.77;60.11;100470.87;4406692;32;20248;-86
2021/10/26 11:38:11;;;;;;;;;;;;;;;16.34;60.09;100464.94;4407880;32;20448;-86
2021/10/26 11:40:37;;;;;;;;;;;;;;;16.60;60.09;100461.13;4393743;32;20002;-86
2021/10/26 11:43:02;;;;;;;;;;;;;;;16.78;60.11;100467.34;4393975;32;20001;-86
2021/10/26 11:45:27;;;;;;;;;;;;;;;16.84;60.11;100470.56;4406304;32;22604;-85
2021/10/26 11:47:52;;;;;;;;;;;;;;;16.76;60.10;100459.53;4405915;32;23253;-86
2021/10/26 11:50:20;;;;;;;;;;;;;;;16.92;60.12;100456.19;4393515;32;22343;-86
2021/10/26 11:52:46;;;;;;;;;;;;;;;16.90;60.12;100452.78;4393711;32;19986;-86
2021/10/26 11:55:11;;;;;;;;;;;;;;;16.92;60.12;100446.53;4406457;32;20021;-86
2021/10/26 11:57:36;;;;;;;;;;;;;;;16.82;60.11;100450.53;4407231;32;20005;-86
2021/10/26 12:00:02;;;;;;;;;;;;;;;16.84;60.11;100439.00;4405661;32;23475;-86
2021/10/26 12:02:31;;;;;;;;;;;;;;;16.81;60.11;100444.41;4406209;32;20017;-86
2021/10/26 12:04:57;;;;;;;;;;;;;;;17.04;60.12;100443.34;4406508;32;20486;-87
2021/10/26 12:07:23;;;;;;;;;;;;;;;16.98;60.12;100438.34;4405992;32;19994;-87
2021/10/26 12:09:55;;;;;;;;;;;;;;;17.05;60.13;100433.66;4393343;32;19990;-86
2021/10/26 12:12:20;;;;;;;;;;;;;;;16.96;60.12;100431.44;4393472;32;20392;-86
2021/10/26 12:14:47;;;;;;;;;;;;;;;17.14;60.13;100436.69;4408212;32;20001;-87
2021/10/26 12:17:20;;;;;;;;;;;;;;;17.20;60.13;100425.00;4395183;32;19978;-86
2021/10/26 12:19:46;;;;;;;;;;;;;;;17.16;60.14;100432.22;4407576;32;20032;-86
2021/10/26 12:22:16;;;;;;;;;;;;;;;17.17;60.14;100433.06;4395498;32;19990;-86
2021/10/26 12:24:48;;;;;;;;;;;;;;;16.99;60.12;100440.03;4408147;32;20017;-87
2021/10/26 12:27:13;;;;;;;;;;;;;;;17.16;60.14;100426.94;4395654;32;19970;-86
2021/10/26 12:29:38;;;;;;;;;;;;;;;16.83;60.11;100429.41;4395331;32;20001;-86
2021/10/26 12:32:04;;;;;;;;;;;;;;;16.83;60.11;100418.03;4408031;32;20476;-86
2021/10/26 12:34:42;;;;;;;;;;;;;;;16.91;60.11;100415.03;4395168;32;20033;-86
2021/10/26 12:37:26;;;;;;;;;;;;;;;16.82;60.11;100416.34;4395226;32;19986;-86
2021/10/26 12:39:52;;;;;;;;;;;;;;;16.85;60.12;100409.16;4409376;32;19986;-86
2021/10/26 12:42:27;;;;;;;;;;;;;;;16.60;60.10;100407.72;4380517;32;882462;-85
2021/10/26 12:44:52;;;;;;;;;;;;;;;16.37;60.09;100409.63;4395118;32;20002;-87
2021/10/26 12:47:17;;;;;;;;;;;;;;;16.66;60.10;100408.31;4394943;32;19990;-86